Time;durP1;ratioP1;P1;durP2;ratioP2;P2;SDS_P1;SDS_P2;PMS_P1;PMS_P2;Temp;Humidity;BMP_temperature;BMP_pressure;BME280_temperature;BME280_humidity;BME280_pressure;Samples;Min_cycle;Max_cycle;Signal;HPM_P1;HPM_P2
2022/09/05 00:00:18;;;;;;;2.47;2.17;;;20.70;99.90;;;;;;5013347;28;20183;-84
2022/09/05 00:03:20;;;;;;;3.20;2.90;;;20.80;99.90;;;;;;5013376;28;20673;-84
2022/09/05 00:06:04;;;;;;;7.55;2.10;;;20.60;99.90;;;;;;5013329;28;20672;-84
2022/09/05 00:08:41;;;;;;;4.05;2.25;;;20.50;99.90;;;;;;5013035;28;20177;-84
2022/09/05 00:11:18;;;;;;;6.43;2.33;;;20.50;99.90;;;;;;5012599;28;20670;-84
2022/09/05 00:14:24;;;;;;;4.47;2.72;;;20.50;99.90;;;;;;5012634;28;20184;-83
2022/09/05 00:17:16;;;;;;;3.50;2.85;;;20.50;99.90;;;;;;5013216;28;20187;-83
2022/09/05 00:20:03;;;;;;;4.22;2.58;;;20.50;99.90;;;;;;5012968;28;20169;-84
2022/09/05 00:22:42;;;;;;;4.75;2.15;;;20.60;99.90;;;;;;5012828;28;20192;-84
2022/09/05 00:25:25;;;;;;;2.78;2.22;;;20.60;99.90;;;;;;5014077;28;20210;-84
2022/09/05 00:28:06;;;;;;;3.22;2.53;;;20.60;99.90;;;;;;5013156;28;20579;-84
2022/09/05 00:31:03;;;;;;;4.03;2.90;;;20.40;99.90;;;;;;5012846;28;20603;-83
2022/09/05 00:33:59;;;;;;;8.15;2.90;;;20.40;99.90;;;;;;4989001;28;20214;-84
2022/09/05 00:36:40;;;;;;;3.58;2.70;;;20.40;99.90;;;;;;5012638;28;20176;-84
2022/09/05 00:39:18;;;;;;;2.90;2.40;;;20.30;99.90;;;;;;5012739;28;20169;-84
2022/09/05 00:41:48;;;;;;;4.88;2.55;;;20.40;99.90;;;;;;5012699;28;20172;-84
2022/09/05 00:44:15;;;;;;;5.65;2.58;;;20.50;99.90;;;;;;5013604;28;20193;-83
2022/09/05 00:46:47;;;;;;;3.90;3.03;;;20.50;99.90;;;;;;5012530;28;20179;-84
2022/09/05 00:49:26;;;;;;;6.43;3.05;;;20.40;99.90;;;;;;5012353;28;20173;-83
2022/09/05 00:52:01;;;;;;;2.95;2.65;;;20.30;99.90;;;;;;5012472;28;20251;-84
2022/09/05 00:54:48;;;;;;;5.20;2.80;;;20.40;99.90;;;;;;5011515;28;20255;-83
2022/09/05 00:57:30;;;;;;;4.32;3.00;;;20.40;99.90;;;;;;5012210;28;20222;-84
2022/09/05 01:00:07;;;;;;;13.02;3.08;;;20.30;99.90;;;;;;5012527;28;20255;-83
2022/09/05 01:02:55;;;;;;;4.00;2.85;;;20.40;99.90;;;;;;5012257;28;20292;-84
2022/09/05 01:05:51;;;;;;;2.80;2.50;;;20.30;99.90;;;;;;5012114;28;20200;-84
2022/09/05 01:08:43;;;;;;;4.00;2.40;;;20.30;99.90;;;;;;5012182;28;20172;-84
2022/09/05 01:11:37;;;;;;;3.58;2.83;;;20.50;99.90;;;;;;5012448;28;20173;-84
2022/09/05 01:14:23;;;;;;;4.50;2.58;;;20.40;99.90;;;;;;5012167;28;20696;-84
2022/09/05 01:17:22;;;;;;;3.80;2.40;;;20.40;99.90;;;;;;5012003;28;20644;-85
2022/09/05 01:20:09;;;;;;;3.22;2.50;;;20.40;99.90;;;;;;5013531;28;20193;-85
2022/09/05 01:22:47;;;;;;;2.72;2.50;;;20.40;99.90;;;;;;5011956;28;20287;-83
2022/09/05 01:25:29;;;;;;;9.70;2.42;;;20.30;99.90;;;;;;5012091;28;20265;-84
2022/09/05 01:28:13;;;;;;;2.38;2.13;;;20.30;99.90;;;;;;5011988;28;20177;-84
2022/09/05 01:30:47;;;;;;;3.05;2.30;;;20.30;99.90;;;;;;5012342;28;20274;-83
2022/09/05 01:33:31;;;;;;;5.13;2.60;;;20.40;99.90;;;;;;5012100;28;20192;-84
2022/09/05 01:36:12;;;;;;;6.45;2.22;;;20.40;99.90;;;;;;5011898;28;20213;-84
2022/09/05 01:38:47;;;;;;;5.15;1.95;;;20.50;99.90;;;;;;5011907;28;20649;-83
2022/09/05 01:41:20;;;;;;;3.05;2.25;;;20.40;99.90;;;;;;5011738;28;20283;-84
2022/09/05 01:44:10;;;;;;;2.97;1.60;;;20.40;99.90;;;;;;5011852;28;20193;-84
2022/09/05 01:46:45;;;;;;;2.45;2.20;;;20.50;99.90;;;;;;5012066;28;20193;-83
2022/09/05 01:49:44;;;;;;;2.38;1.75;;;20.60;99.90;;;;;;5011975;28;20176;-84
2022/09/05 01:52:25;;;;;;;2.20;1.95;;;20.50;99.90;;;;;;5012188;28;20200;-83
2022/09/05 01:55:16;;;;;;;2.65;2.00;;;20.60;99.90;;;;;;5012893;28;20259;-84
2022/09/05 01:58:00;;;;;;;3.92;2.35;;;20.50;99.90;;;;;;5011455;28;20195;-84
2022/09/05 02:01:04;;;;;;;10.23;1.98;;;20.50;99.90;;;;;;5012895;28;20176;-83
2022/09/05 02:03:32;;;;;;;8.80;2.33;;;20.50;99.90;;;;;;5012969;28;20211;-84
2022/09/05 02:06:19;;;;;;;4.63;2.33;;;20.50;99.90;;;;;;5012679;28;20347;-84
2022/09/05 02:09:22;;;;;;;2.20;1.80;;;20.50;99.90;;;;;;5016930;28;20172;-84
2022/09/05 02:11:58;;;;;;;2.08;1.85;;;20.40;99.90;;;;;;5015485;28;20624;-84
2022/09/05 02:14:28;;;;;;;1.67;1.55;;;20.50;99.90;;;;;;5015665;28;20207;-84
2022/09/05 02:17:02;;;;;;;2.05;1.70;;;20.50;99.90;;;;;;5016623;28;20164;-84
2022/09/05 02:19:30;;;;;;;1.45;1.35;;;20.50;99.90;;;;;;5015515;28;20176;-85
2022/09/05 02:22:05;;;;;;;1.50;1.38;;;20.50;99.90;;;;;;5015327;28;20536;-84
2022/09/05 02:24:43;;;;;;;3.80;1.60;;;20.60;99.90;;;;;;5015296;28;20215;-84
2022/09/05 02:27:23;;;;;;;1.40;1.30;;;20.60;99.90;;;;;;5015025;28;20164;-84
2022/09/05 02:30:08;;;;;;;1.63;1.52;;;20.70;99.90;;;;;;5015040;28;20271;-84
2022/09/05 02:32:49;;;;;;;4.97;1.60;;;20.80;99.90;;;;;;5015085;28;20196;-84
2022/09/05 02:35:26;;;;;;;2.92;1.25;;;20.70;99.90;;;;;;5016365;28;20192;-84
2022/09/05 02:38:06;;;;;;;2.45;1.85;;;20.70;99.90;;;;;;5015026;28;20172;-84
2022/09/05 02:40:34;;;;;;;3.05;1.35;;;20.70;99.90;;;;;;5015505;28;20652;-84
2022/09/05 02:43:18;;;;;;;1.40;1.30;;;20.80;99.90;;;;;;5016205;28;20688;-84
2022/09/05 02:45:56;;;;;;;2.28;1.50;;;20.80;99.90;;;;;;5014714;28;20254;-84
2022/09/05 02:49:06;;;;;;;4.70;1.48;;;20.80;99.90;;;;;;5015020;28;20172;-84
2022/09/05 02:51:56;;;;;;;1.55;1.40;;;20.90;99.90;;;;;;5012623;28;20187;-85
2022/09/05 02:54:30;;;;;;;3.60;1.50;;;20.80;99.90;;;;;;5015342;28;20266;-84
2022/09/05 02:57:04;;;;;;;3.03;1.40;;;20.80;99.90;;;;;;5015626;28;20176;-85
2022/09/05 03:00:09;;;;;;;1.67;1.45;;;20.80;99.90;;;;;;5037133;28;20175;-85
2022/09/05 03:02:46;;;;;;;1.85;1.50;;;20.70;99.90;;;;;;5039229;28;20211;-84
2022/09/05 03:05:23;;;;;;;1.63;1.45;;;20.70;99.90;;;;;;5038559;28;20195;-84
2022/09/05 03:08:15;;;;;;;2.10;1.90;;;20.60;99.90;;;;;;5037458;28;20172;-84
2022/09/05 03:11:05;;;;;;;1.30;1.20;;;20.70;99.90;;;;;;5037727;28;20168;-84
2022/09/05 03:13:50;;;;;;;1.90;1.40;;;20.80;99.90;;;;;;5026011;28;20192;-84
2022/09/05 03:16:21;;;;;;;1.77;1.52;;;20.90;99.90;;;;;;5016163;28;20628;-84
2022/09/05 03:19:13;;;;;;;3.80;1.38;;;20.80;99.90;;;;;;5013709;28;20179;-84
2022/09/05 03:22:06;;;;;;;3.28;1.40;;;20.70;99.90;;;;;;5014214;28;20187;-84
2022/09/05 03:25:04;;;;;;;2.58;1.67;;;20.70;99.90;;;;;;5014097;28;20278;-84
2022/09/05 03:28:10;;;;;;;7.00;1.67;;;20.60;99.90;;;;;;5014153;28;20195;-84
2022/09/05 03:30:55;;;;;;;1.70;1.55;;;20.60;99.90;;;;;;5014113;28;20683;-84
2022/09/05 03:33:58;;;;;;;2.92;1.40;;;20.60;99.90;;;;;;5013903;28;20677;-84
2022/09/05 03:36:52;;;;;;;5.28;1.70;;;20.50;99.90;;;;;;5013770;28;20267;-85
2022/09/05 03:39:30;;;;;;;6.03;1.80;;;20.50;99.90;;;;;;5013642;28;20212;-84
2022/09/05 03:42:09;;;;;;;3.35;2.30;;;20.60;99.90;;;;;;5013532;28;20227;-84
2022/09/05 03:44:55;;;;;;;3.05;1.70;;;20.60;99.90;;;;;;5013889;28;20196;-85
2022/09/05 03:47:47;;;;;;;2.20;1.85;;;20.50;99.90;;;;;;5013816;28;20173;-84
2022/09/05 03:50:16;;;;;;;1.45;1.27;;;20.50;99.90;;;;;;5013603;28;20175;-85
2022/09/05 03:53:03;;;;;;;3.25;1.67;;;20.50;99.90;;;;;;5013414;28;20310;-84
2022/09/05 03:56:00;;;;;;;2.80;1.60;;;20.50;99.90;;;;;;5013881;28;20184;-85
2022/09/05 03:58:29;;;;;;;4.32;1.40;;;20.60;99.90;;;;;;5013527;28;20180;-86
2022/09/05 04:01:25;;;;;;;2.72;1.33;;;20.50;99.90;;;;;;5016937;28;20250;-86
2022/09/05 04:03:56;;;;;;;3.65;1.80;;;20.50;99.90;;;;;;5017480;28;20212;-85
2022/09/05 04:06:33;;;;;;;8.82;1.75;;;20.50;99.90;;;;;;5013445;28;20184;-85
2022/09/05 04:09:04;;;;;;;7.65;1.88;;;20.40;99.90;;;;;;5014415;28;20176;-85
2022/09/05 04:11:36;;;;;;;2.25;1.42;;;20.40;99.90;;;;;;5014433;28;20179;-85
2022/09/05 04:14:09;;;;;;;11.52;2.10;;;20.40;99.90;;;;;;5013373;28;20200;-85
2022/09/05 04:16:43;;;;;;;4.05;1.88;;;20.30;99.90;;;;;;5013186;28;20180;-84
2022/09/05 04:19:21;;;;;;;2.58;1.33;;;20.40;99.90;;;;;;5013476;28;20164;-85
2022/09/05 04:22:27;;;;;;;7.88;2.25;;;20.30;99.90;;;;;;5014461;28;20172;-84
2022/09/05 04:25:25;;;;;;;3.47;1.80;;;20.40;99.90;;;;;;4957241;28;20213;-85
2022/09/05 04:28:06;;;;;;;4.10;1.80;;;20.40;99.90;;;;;;5001954;28;20234;-85
2022/09/05 04:30:51;;;;;;;4.38;1.75;;;20.30;99.90;;;;;;5013149;28;20183;-85
2022/09/05 04:33:24;;;;;;;7.93;1.88;;;20.20;99.90;;;;;;5013265;28;20196;-83
2022/09/05 04:36:32;;;;;;;10.45;1.92;;;20.20;99.90;;;;;;5014103;28;20176;-85
2022/09/05 04:39:16;;;;;;;5.53;1.90;;;20.20;99.90;;;;;;5012462;28;20259;-85
2022/09/05 04:41:55;;;;;;;2.00;1.75;;;20.20;99.90;;;;;;5012553;28;20169;-85
2022/09/05 04:44:52;;;;;;;7.20;1.80;;;20.30;99.90;;;;;;5013690;28;20220;-85
2022/09/05 04:47:40;;;;;;;3.35;1.83;;;20.30;99.90;;;;;;5009989;28;20180;-85
2022/09/05 04:50:15;;;;;;;5.78;2.00;;;20.40;99.90;;;;;;5012208;28;20183;-85
2022/09/05 04:52:40;;;;;;;8.15;1.90;;;20.40;99.90;;;;;;5012086;28;20656;-85
2022/09/05 04:55:18;;;;;;;4.28;2.00;;;20.50;99.90;;;;;;5012590;28;20180;-84
2022/09/05 04:58:05;;;;;;;13.02;1.83;;;20.60;99.90;;;;;;5012478;28;20672;-85
2022/09/05 05:00:56;;;;;;;7.97;1.80;;;20.60;99.90;;;;;;5012631;28;20164;-85
2022/09/05 05:03:25;;;;;;;10.80;1.58;;;20.60;99.90;;;;;;5012012;28;20235;-84
2022/09/05 05:06:07;;;;;;;13.43;1.40;;;20.60;99.90;;;;;;5013462;28;20262;-84
2022/09/05 05:08:45;;;;;;;6.80;1.73;;;20.60;99.90;;;;;;5013511;28;20280;-85
2022/09/05 05:11:18;;;;;;;7.60;1.83;;;20.80;99.90;;;;;;5012519;28;20179;-85
2022/09/05 05:14:10;;;;;;;4.03;1.70;;;20.80;99.90;;;;;;5012295;28;20203;-84
2022/09/05 05:16:42;;;;;;;8.82;2.03;;;20.80;99.90;;;;;;5012007;28;20200;-85
2022/09/05 05:19:28;;;;;;;11.85;1.77;;;20.90;99.90;;;;;;5012582;28;20180;-85
2022/09/05 05:21:56;;;;;;;9.70;1.73;;;20.80;99.90;;;;;;5011682;28;20176;-85
2022/09/05 05:24:34;;;;;;;4.93;1.70;;;20.90;99.90;;;;;;5011708;28;20283;-85
2022/09/05 05:27:19;;;;;;;3.83;1.67;;;21.10;99.90;;;;;;5012076;28;20180;-85
2022/09/05 05:29:55;;;;;;;11.70;1.67;;;21.10;99.90;;;;;;5011889;28;20255;-85
2022/09/05 05:32:29;;;;;;;2.55;1.85;;;21.30;99.90;;;;;;5011922;28;20299;-84
2022/09/05 05:35:01;;;;;;;2.50;1.40;;;21.30;99.90;;;;;;5011598;28;20180;-81
2022/09/05 05:37:30;;;;;;;7.05;1.95;;;21.40;99.90;;;;;;5011021;28;20651;-85
2022/09/05 05:40:11;;;;;;;8.27;2.17;;;21.40;99.90;;;;;;5011603;28;20172;-85
2022/09/05 05:42:39;;;;;;;8.77;2.13;;;21.40;99.90;;;;;;5012536;28;20200;-87
2022/09/05 05:45:17;;;;;;;12.40;2.22;;;21.60;99.90;;;;;;5012445;28;20208;-86
2022/09/05 05:47:46;;;;;;;25.63;2.28;;;21.60;99.90;;;;;;5013242;28;20191;-84
2022/09/05 05:50:34;;;;;;;7.97;1.42;;;21.60;99.90;;;;;;5013088;28;20168;-88
2022/09/05 05:53:31;;;;;;;8.95;2.05;;;21.70;99.90;;;;;;5038065;28;20196;-85
2022/09/05 05:56:20;;;;;;;14.02;2.47;;;21.70;99.90;;;;;;5001023;28;20211;-86
2022/09/05 05:59:33;;;;;;;3.65;1.70;;;21.90;99.90;;;;;;5012770;28;20537;-87
2022/09/05 06:02:23;;;;;;;7.63;1.40;;;22.10;99.90;;;;;;4961838;28;20163;-85
2022/09/05 06:05:36;;;;;;;2.80;1.58;;;22.20;99.90;;;;;;4981112;28;20202;-86
2022/09/05 06:08:15;;;;;;;4.18;1.65;;;22.20;99.90;;;;;;5009740;28;20180;-87
2022/09/05 06:11:13;;;;;;;6.40;1.50;;;22.20;99.90;;;;;;5026605;28;20191;-89
2022/09/05 06:13:44;;;;;;;163.23;10.07;;;22.20;99.90;;;;;;5013254;28;20200;-88
2022/09/05 06:16:36;;;;;;;36.25;4.18;;;22.20;99.90;;;;;;5014170;28;20641;-86
2022/09/05 06:19:35;;;;;;;15.25;2.05;;;22.30;99.90;;;;;;5012317;28;20169;-83
2022/09/05 06:22:01;;;;;;;3.47;2.08;;;22.30;99.90;;;;;;5015290;28;20204;-86
2022/09/05 06:24:59;;;;;;;10.65;1.35;;;22.40;99.90;;;;;;5023957;28;20244;-88
2022/09/05 06:27:42;;;;;;;4.22;1.65;;;22.50;99.90;;;;;;5024040;28;20287;-85
2022/09/05 06:30:18;;;;;;;1.27;1.10;;;22.50;99.90;;;;;;5014472;28;20248;-82
2022/09/05 06:33:05;;;;;;;15.07;1.80;;;22.60;99.90;;;;;;5011888;28;20742;-83
2022/09/05 06:35:53;;;;;;;8.18;1.52;;;22.70;99.90;;;;;;5013084;28;20639;-83
2022/09/05 06:39:07;;;;;;;8.68;2.30;;;22.90;99.90;;;;;;5011363;28;20251;-83
2022/09/05 06:41:58;;;;;;;15.52;2.78;;;23.00;99.90;;;;;;5011141;28;20179;-86
2022/09/05 06:45:00;;;;;;;11.52;1.73;;;23.00;99.90;;;;;;5011333;28;20584;-84
2022/09/05 06:47:27;;;;;;;8.23;1.58;;;23.10;99.90;;;;;;5010629;28;20531;-84
2022/09/05 06:50:11;;;;;;;6.47;1.50;;;23.10;99.90;;;;;;5011000;28;20548;-84
2022/09/05 06:52:58;;;;;;;6.15;1.60;;;23.30;99.90;;;;;;5017209;28;20197;-84
2022/09/05 06:55:27;;;;;;;10.13;1.73;;;23.40;99.90;;;;;;5027211;28;20184;-83
2022/09/05 06:57:58;;;;;;;4.93;1.92;;;23.50;99.90;;;;;;5021927;28;20181;-86
2022/09/05 07:00:29;;;;;;;2.88;1.60;;;23.70;99.90;;;;;;5017911;28;20910;-86
2022/09/05 07:03:23;;;;;;;4.93;1.27;;;23.90;99.90;;;;;;5015734;28;20219;-83
2022/09/05 07:06:09;;;;;;;5.03;1.65;;;24.10;99.90;;;;;;5015921;28;20266;-86
2022/09/05 07:09:09;;;;;;;2.78;1.20;;;24.20;99.90;;;;;;5015428;28;20226;-86
2022/09/05 07:11:49;;;;;;;3.55;1.33;;;24.40;99.90;;;;;;5024013;28;20210;-84
2022/09/05 07:14:59;;;;;;;7.28;1.30;;;24.40;99.90;;;;;;5015286;28;20231;-87
2022/09/05 07:17:37;;;;;;;13.77;1.58;;;24.60;99.90;;;;;;5008899;28;20184;-84
2022/09/05 07:20:34;;;;;;;7.55;1.85;;;24.60;99.90;;;;;;5016319;28;20180;-85
2022/09/05 07:23:18;;;;;;;1.98;1.30;;;24.50;99.90;;;;;;5016227;28;20243;-85
2022/09/05 07:25:48;;;;;;;2.03;1.40;;;24.70;99.90;;;;;;5014832;28;20216;-85
2022/09/05 07:28:15;;;;;;;2.58;1.63;;;24.70;99.90;;;;;;5015969;28;20248;-85
2022/09/05 07:30:54;;;;;;;7.68;1.80;;;24.80;99.90;;;;;;5019113;28;20175;-85
2022/09/05 07:33:25;;;;;;;7.20;1.73;;;25.00;99.90;;;;;;5034381;28;20233;-86
2022/09/05 07:36:05;;;;;;;3.90;1.27;;;25.20;99.90;;;;;;5040920;28;20164;-86
2022/09/05 07:38:34;;;;;;;6.88;1.60;;;25.40;99.90;;;;;;5027964;28;20247;-85
2022/09/05 07:41:28;;;;;;;21.83;1.83;;;25.60;99.90;;;;;;5031737;28;20176;-85
2022/09/05 07:44:23;;;;;;;2.80;1.30;;;25.60;99.90;;;;;;5032058;28;20572;-82
2022/09/05 07:46:57;;;;;;;5.13;1.38;;;25.60;99.90;;;;;;5021931;28;20223;-90
2022/09/05 07:49:27;;;;;;;9.70;1.50;;;25.60;99.90;;;;;;5045134;28;20164;-89
2022/09/05 07:51:56;;;;;;;3.78;1.70;;;25.70;99.90;;;;;;5026680;28;20172;-92
2022/09/05 07:54:29;;;;;;;1.55;1.40;;;25.70;99.90;;;;;;5022322;28;20173;-91
2022/09/05 07:57:08;;;;;;;9.70;1.60;;;25.50;99.90;;;;;;5021656;28;20165;-91
2022/09/05 07:59:40;;;;;;;6.05;1.50;;;25.50;99.90;;;;;;5021635;28;20161;-95
2022/09/05 08:02:12;;;;;;;5.22;1.60;;;25.50;99.90;;;;;;5023577;28;20253;-94
2022/09/05 08:04:41;;;;;;;4.70;1.40;;;25.40;99.90;;;;;;5006231;28;20216;-93
2022/09/05 08:07:31;;;;;;;8.73;1.30;;;25.30;99.90;;;;;;5021748;28;20170;-94
2022/09/05 08:10:11;;;;;;;22.77;1.85;;;25.40;99.90;;;;;;5031808;28;20179;-93
2022/09/05 08:12:47;;;;;;;2.40;1.30;;;25.30;99.90;;;;;;5034519;28;20233;-94
2022/09/05 08:15:26;;;;;;;3.13;1.20;;;25.40;99.90;;;;;;5021306;28;20184;-95
2022/09/05 08:18:10;;;;;;;10.38;1.67;;;25.60;99.90;;;;;;5025955;28;20581;-95
2022/09/05 08:21:15;;;;;;;4.25;1.20;;;25.60;99.90;;;;;;5042903;28;20176;-96
2022/09/05 08:24:00;;;;;;;8.60;1.20;;;25.70;99.90;;;;;;5040724;28;20243;-91
2022/09/05 08:26:38;;;;;;;3.47;1.25;;;25.80;99.90;;;;;;5040338;28;20214;-90
2022/09/05 08:29:30;;;;;;;3.20;1.35;;;26.00;99.90;;;;;;5039843;28;20502;-91
2022/09/05 08:32:22;;;;;;;2.90;1.58;;;26.10;99.90;;;;;;5035102;28;20196;-92
2022/09/05 08:34:53;;;;;;;6.80;1.63;;;26.00;99.90;;;;;;5019556;28;20176;-94
2022/09/05 08:37:23;;;;;;;6.40;1.20;;;26.10;99.90;;;;;;5019153;28;20161;-90
2022/09/05 08:40:09;;;;;;;18.58;1.58;;;26.00;99.90;;;;;;5018483;28;20600;-88
2022/09/05 08:43:02;;;;;;;3.40;1.65;;;26.20;99.90;;;;;;5018575;28;20223;-90
2022/09/05 08:45:53;;;;;;;6.05;1.33;;;26.10;99.90;;;;;;5017119;28;20200;-88
2022/09/05 08:48:56;;;;;;;1.13;1.08;;;26.20;99.90;;;;;;5017071;28;20179;-90
2022/09/05 08:51:45;;;;;;;4.50;1.40;;;26.50;99.90;;;;;;5017010;28;20179;-90
2022/09/05 08:54:21;;;;;;;1.60;1.13;;;26.60;99.90;;;;;;5016661;28;20184;-89
2022/09/05 08:56:55;;;;;;;36.63;4.40;;;26.80;99.90;;;;;;5015529;28;20172;-89
2022/09/05 08:59:42;;;;;;;22.38;2.28;;;26.80;99.90;;;;;;5015725;28;20573;-91
2022/09/05 09:02:41;;;;;;;72.43;6.20;;;27.00;99.90;;;;;;5017198;28;20192;-90
2022/09/05 09:05:25;;;;;;;6.22;1.20;;;27.00;99.90;;;;;;4995470;28;20227;-90
2022/09/05 09:08:12;;;;;;;1.40;1.15;;;27.20;99.90;;;;;;5018383;28;20514;-90
2022/09/05 09:10:54;;;;;;;5.22;1.63;;;27.40;99.90;;;;;;5016462;28;20176;-90
2022/09/05 09:13:51;;;;;;;11.52;1.30;;;27.30;99.90;;;;;;5020593;28;20196;-89
2022/09/05 09:16:34;;;;;;;2.17;1.27;;;27.20;99.90;;;;;;5018231;28;20169;-90
2022/09/05 09:19:17;;;;;;;6.78;1.40;;;27.40;99.90;;;;;;5029421;28;20179;-90
2022/09/05 09:21:57;;;;;;;4.93;1.08;;;27.60;99.90;;;;;;5046533;28;20172;-90
2022/09/05 09:24:56;;;;;;;3.08;1.25;;;27.70;99.90;;;;;;5047222;28;20191;-91
2022/09/05 09:27:27;;;;;;;10.35;1.50;;;27.80;99.90;;;;;;5032673;28;20180;-91
2022/09/05 09:30:02;;;;;;;8.18;2.05;;;28.00;99.90;;;;;;5022211;28;20259;-91
2022/09/05 09:32:43;;;;;;;3.80;1.95;;;28.10;99.90;;;;;;5002583;28;20287;-90
2022/09/05 09:35:51;;;;;;;2.75;1.25;;;28.20;99.90;;;;;;5033840;28;20195;-87
2022/09/05 09:39:15;;;;;;;3.38;1.17;;;28.10;99.90;;;;;;5038480;28;20182;-90
2022/09/05 09:42:03;;;;;;;1.63;1.15;;;27.70;99.90;;;;;;4997773;28;20243;-90
2022/09/05 09:44:52;;;;;;;8.90;1.20;;;28.00;99.90;;;;;;5022249;28;20637;-90
2022/09/05 09:47:44;;;;;;;2.47;1.80;;;28.10;99.90;;;;;;5022013;28;20179;-88
2022/09/05 09:50:48;;;;;;;2.05;1.30;;;28.00;99.90;;;;;;5025048;28;20156;-89
2022/09/05 09:54:05;;;;;;;3.42;1.25;;;28.10;99.90;;;;;;5045894;28;20287;-94
2022/09/05 09:56:49;;;;;;;10.55;1.30;;;28.20;99.90;;;;;;5049297;28;20167;-86
2022/09/05 09:59:30;;;;;;;2.97;1.45;;;28.40;99.90;;;;;;5026699;28;20172;-84
2022/09/05 10:01:58;;;;;;;11.32;1.35;;;28.20;99.90;;;;;;5018809;28;20263;-87
2022/09/05 10:04:54;;;;;;;10.48;1.48;;;28.40;99.90;;;;;;5017471;28;20279;-84
2022/09/05 10:07:35;;;;;;;1.58;1.33;;;28.40;99.90;;;;;;5014915;28;20181;-87
2022/09/05 10:10:48;;;;;;;3.35;2.10;;;28.50;99.90;;;;;;5012653;28;20177;-85
2022/09/05 10:13:29;;;;;;;9.10;1.38;;;28.40;99.90;;;;;;5010775;28;20347;-84
2022/09/05 10:16:23;;;;;;;1.23;1.13;;;28.60;99.90;;;;;;5012130;28;20277;-84
2022/09/05 10:19:21;;;;;;;2.28;1.40;;;28.70;99.90;;;;;;5011853;28;20195;-85
2022/09/05 10:22:15;;;;;;;14.68;1.70;;;29.00;99.90;;;;;;5012425;28;20692;-86
2022/09/05 10:24:53;;;;;;;5.20;1.15;;;29.10;99.90;;;;;;5031434;28;20207;-86
2022/09/05 10:27:43;;;;;;;1.98;1.00;;;29.30;99.90;;;;;;5036198;28;20167;-86
2022/09/05 10:30:35;;;;;;;8.07;1.50;;;29.50;99.90;;;;;;5037665;28;20176;-84
2022/09/05 10:33:26;;;;;;;9.88;1.40;;;29.70;99.90;;;;;;5036503;28;20196;-83
2022/09/05 10:36:00;;;;;;;8.48;1.35;;;29.70;99.90;;;;;;5034769;28;20168;-83
2022/09/05 10:38:39;;;;;;;6.75;1.00;;;29.50;99.90;;;;;;5038221;28;20187;-87
2022/09/05 10:41:38;;;;;;;8.40;1.35;;;29.60;99.90;;;;;;5038918;28;20243;-85
2022/09/05 10:44:06;;;;;;;8.65;1.38;;;29.70;99.90;;;;;;5041447;28;20210;-87
2022/09/05 10:46:50;;;;;;;1.52;1.10;;;29.80;99.90;;;;;;5041006;28;20218;-89
2022/09/05 10:49:22;;;;;;;7.68;1.63;;;29.90;99.90;;;;;;5056675;28;20163;-86
2022/09/05 10:52:19;;;;;;;7.50;1.20;;;30.10;99.90;;;;;;5050464;28;20219;-81
2022/09/05 10:55:04;;;;;;;4.72;1.33;;;30.10;99.40;;;;;;5048039;28;20171;-87
2022/09/05 10:57:53;;;;;;;5.32;1.15;;;30.10;99.40;;;;;;5035589;28;20252;-85
2022/09/05 11:00:37;;;;;;;15.75;1.80;;;29.90;99.00;;;;;;5045860;28;20168;-87
2022/09/05 11:03:05;;;;;;;5.55;1.85;;;29.50;99.40;;;;;;5038414;28;20187;-87
2022/09/05 11:05:38;;;;;;;7.63;1.10;;;29.50;99.70;;;;;;5037100;28;20203;-83
2022/09/05 11:08:06;;;;;;;2.30;1.38;;;29.50;99.00;;;;;;5034190;28;20314;-85
2022/09/05 11:11:04;;;;;;;9.35;1.10;;;29.50;99.10;;;;;;5022237;28;20326;-84
2022/09/05 11:13:46;;;;;;;6.60;2.08;;;29.70;99.00;;;;;;5025005;28;20222;-90
2022/09/05 11:16:38;;;;;;;31.17;3.22;;;30.00;98.50;;;;;;5036563;28;20167;-91
2022/09/05 11:19:13;;;;;;;12.13;1.60;;;30.20;98.30;;;;;;5031061;28;20176;-90
2022/09/05 11:22:02;;;;;;;22.15;3.28;;;30.10;97.70;;;;;;5016445;28;20163;-89
2022/09/05 11:24:46;;;;;;;4.65;1.20;;;30.20;97.20;;;;;;5016816;28;20515;-90
2022/09/05 11:27:32;;;;;;;6.93;1.60;;;30.30;97.50;;;;;;5016229;28;20167;-93
2022/09/05 11:30:09;;;;;;;6.88;1.20;;;30.50;96.90;;;;;;5015767;28;20164;-88
2022/09/05 11:33:10;;;;;;;6.63;1.00;;;30.70;96.90;;;;;;5015105;28;20187;-93
2022/09/05 11:35:46;;;;;;;5.60;0.90;;;30.60;96.80;;;;;;5016524;28;20211;-88
2022/09/05 11:38:30;;;;;;;0.90;0.88;;;30.30;97.00;;;;;;5016370;28;20175;-87
2022/09/05 11:41:15;;;;;;;3.92;0.82;;;30.40;96.10;;;;;;5017572;28;20184;-92
2022/09/05 11:44:10;;;;;;;9.10;1.15;;;30.40;96.30;;;;;;5017087;28;20319;-92
2022/09/05 11:46:59;;;;;;;3.42;1.10;;;30.50;96.00;;;;;;5035682;28;20219;-83
2022/09/05 11:49:39;;;;;;;8.52;1.30;;;30.30;96.10;;;;;;5037353;28;20153;-89
2022/09/05 11:52:08;;;;;;;9.23;1.40;;;30.20;95.90;;;;;;5032608;28;20202;-95
2022/09/05 11:54:55;;;;;;;10.90;1.65;;;30.00;95.90;;;;;;5017962;28;20195;-88
2022/09/05 11:57:44;;;;;;;7.50;1.20;;;29.90;96.30;;;;;;5015274;28;20199;-96
2022/09/05 12:00:32;;;;;;;2.80;1.20;;;29.70;96.60;;;;;;5014952;28;20169;-88
2022/09/05 12:03:20;;;;;;;5.28;1.00;;;29.70;96.90;;;;;;5014192;28;20710;-90
2022/09/05 12:06:14;;;;;;;2.92;1.25;;;29.70;97.00;;;;;;5033201;28;20269;-89
2022/09/05 12:09:08;;;;;;;2.97;1.20;;;29.80;96.70;;;;;;5035648;28;20186;-82
2022/09/05 12:11:37;;;;;;;1.58;1.02;;;30.00;96.80;;;;;;5035125;28;20271;-85
2022/09/05 12:14:33;;;;;;;5.18;1.13;;;30.10;96.40;;;;;;5034488;28;20191;-86
2022/09/05 12:17:17;;;;;;;3.10;1.40;;;30.00;96.10;;;;;;5034709;28;20635;-88
2022/09/05 12:19:43;;;;;;;8.07;1.27;;;29.90;96.30;;;;;;5035122;28;20179;-86
2022/09/05 12:22:32;;;;;;;1.20;0.90;;;29.90;96.20;;;;;;5029556;28;20554;-87
2022/09/05 12:25:10;;;;;;;3.53;1.52;;;29.70;96.40;;;;;;5034489;28;20209;-82
2022/09/05 12:27:38;;;;;;;4.10;1.65;;;29.80;96.50;;;;;;5032299;28;21428;-82
2022/09/05 12:30:10;;;;;;;4.07;1.35;;;30.00;96.30;;;;;;5032968;28;20167;-88
2022/09/05 12:33:09;;;;;;;2.72;1.30;;;30.10;96.00;;;;;;5033170;28;20652;-87
2022/09/05 12:35:50;;;;;;;2.97;1.00;;;30.10;96.20;;;;;;5034143;28;20167;-89
2022/09/05 12:38:27;;;;;;;5.45;1.05;;;30.10;95.90;;;;;;5034073;28;20168;-84
2022/09/05 12:41:17;;;;;;;3.60;0.90;;;30.20;96.20;;;;;;5032013;28;20221;-82
2022/09/05 12:44:02;;;;;;;6.20;1.25;;;30.30;95.90;;;;;;5032834;28;20191;-83
2022/09/05 12:46:44;;;;;;;4.00;1.00;;;30.30;95.80;;;;;;5012054;28;20222;-84
2022/09/05 12:49:24;;;;;;;6.72;1.40;;;30.60;95.80;;;;;;5031608;28;20178;-83
2022/09/05 12:52:01;;;;;;;10.82;1.60;;;30.70;95.80;;;;;;5031837;28;20537;-84
2022/09/05 12:54:35;;;;;;;8.07;1.23;;;30.70;95.20;;;;;;5032265;28;20206;-85
2022/09/05 12:57:05;;;;;;;16.55;1.15;;;30.50;95.20;;;;;;5032417;28;20569;-87
2022/09/05 12:59:34;;;;;;;4.00;0.93;;;30.30;95.20;;;;;;5032380;28;20167;-85
2022/09/05 13:02:06;;;;;;;6.28;1.33;;;30.20;96.00;;;;;;5032367;28;20229;-82
2022/09/05 13:04:46;;;;;;;3.35;1.65;;;30.30;96.00;;;;;;5032207;28;20182;-84
2022/09/05 13:07:20;;;;;;;7.22;1.30;;;30.50;95.30;;;;;;5031682;28;20167;-83
2022/09/05 13:09:58;;;;;;;5.43;3.70;;;30.80;94.90;;;;;;5031478;28;20225;-83
2022/09/05 13:12:28;;;;;;;7.35;1.65;;;30.90;94.70;;;;;;5033233;28;20232;-84
2022/09/05 13:15:05;;;;;;;2.85;1.05;;;30.90;94.70;;;;;;5032064;28;20175;-82
2022/09/05 13:18:09;;;;;;;5.97;1.20;;;30.80;94.30;;;;;;5032163;28;20163;-84
2022/09/05 13:20:47;;;;;;;12.35;1.35;;;31.00;94.40;;;;;;5033475;28;20167;-90
2022/09/05 13:23:29;;;;;;;1.40;1.30;;;31.40;94.20;;;;;;5030730;28;20230;-88
2022/09/05 13:26:00;;;;;;;1.88;1.40;;;31.20;94.50;;;;;;5032001;28;20570;-88
2022/09/05 13:28:39;;;;;;;3.72;1.35;;;31.50;94.20;;;;;;5032985;28;20227;-93
2022/09/05 13:31:07;;;;;;;14.30;1.70;;;31.60;94.60;;;;;;5033439;28;20163;-89
2022/09/05 13:33:43;;;;;;;2.25;1.00;;;31.70;93.90;;;;;;5033044;28;20198;-87
2022/09/05 13:36:13;;;;;;;7.20;1.00;;;32.00;93.90;;;;;;5031790;28;20209;-86
2022/09/05 13:39:00;;;;;;;2.83;1.10;;;32.10;93.70;;;;;;5031557;28;20172;-85
2022/09/05 13:41:33;;;;;;;1.70;1.33;;;32.10;93.10;;;;;;5033421;28;20218;-86
2022/09/05 13:43:59;;;;;;;3.30;1.02;;;32.10;93.10;;;;;;5032664;28;20313;-85
2022/09/05 13:46:34;;;;;;;9.07;1.30;;;32.20;93.10;;;;;;5031193;28;20297;-87
2022/09/05 13:49:23;;;;;;;4.20;1.17;;;32.40;93.20;;;;;;5031048;28;20167;-85
2022/09/05 13:51:59;;;;;;;1.83;1.38;;;32.60;92.70;;;;;;5031164;28;20174;-84
2022/09/05 13:54:35;;;;;;;1.02;0.90;;;32.40;92.40;;;;;;5031905;28;20170;-84
2022/09/05 13:57:18;;;;;;;6.30;1.20;;;32.40;92.10;;;;;;5031623;28;20173;-84
2022/09/05 14:00:09;;;;;;;2.45;1.00;;;32.60;91.80;;;;;;5030960;28;20193;-85
2022/09/05 14:03:18;;;;;;;5.90;1.10;;;32.80;91.80;;;;;;5037466;28;20187;-85
2022/09/05 14:06:12;;;;;;;2.67;1.10;;;32.90;91.30;;;;;;5054406;28;20258;-84
2022/09/05 14:08:49;;;;;;;1.20;0.95;;;33.10;91.20;;;;;;5053186;28;20183;-84